sensor_id;sensor_type;location;lat;lon;timestamp;P1;durP1;ratioP1;P2;durP2;ratioP2
1785;SDS011;890;48.158;11.540;2022-09-02T00:00:44;5.37;;;4.87;;
1785;SDS011;890;48.158;11.540;2022-09-02T00:03:12;6.03;;;5.40;;
1785;SDS011;890;48.158;11.540;2022-09-02T00:05:39;5.90;;;5.50;;
1785;SDS011;890;48.158;11.540;2022-09-02T00:08:05;5.53;;;5.03;;
1785;SDS011;890;48.158;11.540;2022-09-02T00:10:32;5.97;;;5.47;;
1785;SDS011;890;48.158;11.540;2022-09-02T00:13:06;6.77;;;5.40;;
1785;SDS011;890;48.158;11.540;2022-09-02T00:15:34;6.57;;;6.07;;
1785;SDS011;890;48.158;11.540;2022-09-02T00:18:00;6.27;;;5.73;;
1785;SDS011;890;48.158;11.540;2022-09-02T00:20:28;5.00;;;4.60;;
1785;SDS011;890;48.158;11.540;2022-09-02T00:22:54;6.30;;;5.70;;
1785;SDS011;890;48.158;11.540;2022-09-02T00:25:20;8.20;;;5.10;;
1785;SDS011;890;48.158;11.540;2022-09-02T00:27:47;6.20;;;5.70;;
1785;SDS011;890;48.158;11.540;2022-09-02T00:30:14;5.83;;;5.33;;
1785;SDS011;890;48.158;11.540;2022-09-02T00:32:40;5.87;;;5.40;;
1785;SDS011;890;48.158;11.540;2022-09-02T00:35:06;6.00;;;5.60;;
1785;SDS011;890;48.158;11.540;2022-09-02T00:37:33;6.33;;;5.73;;
1785;SDS011;890;48.158;11.540;2022-09-02T00:39:59;6.20;;;5.70;;
1785;SDS011;890;48.158;11.540;2022-09-02T00:42:25;6.70;;;6.10;;
1785;SDS011;890;48.158;11.540;2022-09-02T00:44:51;6.03;;;5.60;;
1785;SDS011;890;48.158;11.540;2022-09-02T00:47:17;5.97;;;5.57;;
1785;SDS011;890;48.158;11.540;2022-09-02T00:49:45;6.07;;;5.50;;
1785;SDS011;890;48.158;11.540;2022-09-02T00:52:13;6.03;;;5.50;;
1785;SDS011;890;48.158;11.540;2022-09-02T00:54:55;6.60;;;6.07;;
1785;SDS011;890;48.158;11.540;2022-09-02T00:57:24;6.90;;;6.40;;
1785;SDS011;890;48.158;11.540;2022-09-02T01:00:02;6.60;;;6.10;;
1785;SDS011;890;48.158;11.540;2022-09-02T01:02:37;6.50;;;6.00;;
1785;SDS011;890;48.158;11.540;2022-09-02T01:05:07;6.40;;;5.90;;
1785;SDS011;890;48.158;11.540;2022-09-02T01:07:35;7.80;;;7.30;;
1785;SDS011;890;48.158;11.540;2022-09-02T01:10:04;6.70;;;6.10;;
1785;SDS011;890;48.158;11.540;2022-09-02T01:12:31;6.23;;;5.80;;
1785;SDS011;890;48.158;11.540;2022-09-02T01:14:57;6.70;;;6.13;;
1785;SDS011;890;48.158;11.540;2022-09-02T01:17:24;6.70;;;5.83;;
1785;SDS011;890;48.158;11.540;2022-09-02T01:19:54;6.57;;;6.07;;
1785;SDS011;890;48.158;11.540;2022-09-02T01:22:24;6.40;;;5.90;;
1785;SDS011;890;48.158;11.540;2022-09-02T01:24:54;6.50;;;5.90;;
1785;SDS011;890;48.158;11.540;2022-09-02T01:27:21;6.77;;;6.27;;
1785;SDS011;890;48.158;11.540;2022-09-02T01:29:51;7.17;;;6.57;;
1785;SDS011;890;48.158;11.540;2022-09-02T01:32:19;6.50;;;6.00;;
1785;SDS011;890;48.158;11.540;2022-09-02T01:34:46;6.87;;;6.17;;
1785;SDS011;890;48.158;11.540;2022-09-02T01:37:11;6.60;;;6.00;;
1785;SDS011;890;48.158;11.540;2022-09-02T01:39:37;7.10;;;6.50;;
1785;SDS011;890;48.158;11.540;2022-09-02T01:42:03;7.10;;;6.50;;
1785;SDS011;890;48.158;11.540;2022-09-02T01:44:29;7.30;;;6.80;;
1785;SDS011;890;48.158;11.540;2022-09-02T01:46:54;6.70;;;6.20;;
1785;SDS011;890;48.158;11.540;2022-09-02T01:49:20;7.03;;;6.53;;
1785;SDS011;890;48.158;11.540;2022-09-02T01:51:47;8.30;;;7.50;;
1785;SDS011;890;48.158;11.540;2022-09-02T01:54:13;7.23;;;6.57;;
1785;SDS011;890;48.158;11.540;2022-09-02T01:56:39;7.10;;;6.40;;
1785;SDS011;890;48.158;11.540;2022-09-02T01:59:05;6.43;;;5.90;;
1785;SDS011;890;48.158;11.540;2022-09-02T02:01:32;7.70;;;7.00;;
1785;SDS011;890;48.158;11.540;2022-09-02T02:03:59;7.33;;;6.73;;
1785;SDS011;890;48.158;11.540;2022-09-02T02:06:25;7.93;;;7.20;;
1785;SDS011;890;48.158;11.540;2022-09-02T02:08:51;7.00;;;6.50;;
1785;SDS011;890;48.158;11.540;2022-09-02T02:11:21;7.77;;;7.00;;
1785;SDS011;890;48.158;11.540;2022-09-02T02:13:48;6.83;;;6.30;;
1785;SDS011;890;48.158;11.540;2022-09-02T02:16:14;7.07;;;6.57;;
1785;SDS011;890;48.158;11.540;2022-09-02T02:18:40;7.10;;;6.57;;
1785;SDS011;890;48.158;11.540;2022-09-02T02:21:06;7.43;;;6.47;;
1785;SDS011;890;48.158;11.540;2022-09-02T02:23:32;6.60;;;6.10;;
1785;SDS011;890;48.158;11.540;2022-09-02T02:25:57;7.70;;;6.97;;
1785;SDS011;890;48.158;11.540;2022-09-02T02:28:23;7.17;;;6.67;;
1785;SDS011;890;48.158;11.540;2022-09-02T02:30:48;9.53;;;7.70;;
1785;SDS011;890;48.158;11.540;2022-09-02T02:33:14;7.30;;;6.50;;
1785;SDS011;890;48.158;11.540;2022-09-02T02:35:40;7.47;;;6.60;;
1785;SDS011;890;48.158;11.540;2022-09-02T02:38:06;6.80;;;6.30;;
1785;SDS011;890;48.158;11.540;2022-09-02T02:40:32;7.73;;;7.13;;
1785;SDS011;890;48.158;11.540;2022-09-02T02:42:58;7.27;;;6.67;;
1785;SDS011;890;48.158;11.540;2022-09-02T02:45:24;5.90;;;5.37;;
1785;SDS011;890;48.158;11.540;2022-09-02T02:47:50;6.47;;;6.00;;
1785;SDS011;890;48.158;11.540;2022-09-02T02:50:17;7.20;;;6.50;;
1785;SDS011;890;48.158;11.540;2022-09-02T02:52:44;7.47;;;6.80;;
1785;SDS011;890;48.158;11.540;2022-09-02T02:55:11;7.97;;;7.27;;
1785;SDS011;890;48.158;11.540;2022-09-02T02:57:38;7.30;;;6.60;;
1785;SDS011;890;48.158;11.540;2022-09-02T03:00:08;7.40;;;6.90;;
1785;SDS011;890;48.158;11.540;2022-09-02T03:02:34;7.60;;;7.10;;
1785;SDS011;890;48.158;11.540;2022-09-02T03:05:02;7.40;;;6.80;;
1785;SDS011;890;48.158;11.540;2022-09-02T03:07:29;7.13;;;6.53;;
1785;SDS011;890;48.158;11.540;2022-09-02T03:09:55;7.40;;;6.90;;
1785;SDS011;890;48.158;11.540;2022-09-02T03:12:20;7.63;;;7.03;;
1785;SDS011;890;48.158;11.540;2022-09-02T03:14:46;8.07;;;7.47;;
1785;SDS011;890;48.158;11.540;2022-09-02T03:17:13;8.43;;;7.83;;
1785;SDS011;890;48.158;11.540;2022-09-02T03:19:38;7.70;;;6.90;;
1785;SDS011;890;48.158;11.540;2022-09-02T03:22:04;8.40;;;7.47;;
1785;SDS011;890;48.158;11.540;2022-09-02T03:24:30;7.73;;;7.13;;
1785;SDS011;890;48.158;11.540;2022-09-02T03:26:57;7.73;;;7.13;;
1785;SDS011;890;48.158;11.540;2022-09-02T03:29:22;7.83;;;7.23;;
1785;SDS011;890;48.158;11.540;2022-09-02T03:31:48;10.93;;;7.43;;
1785;SDS011;890;48.158;11.540;2022-09-02T03:34:13;7.83;;;7.10;;
1785;SDS011;890;48.158;11.540;2022-09-02T03:36:39;7.07;;;6.57;;
1785;SDS011;890;48.158;11.540;2022-09-02T03:39:08;8.07;;;7.33;;
1785;SDS011;890;48.158;11.540;2022-09-02T03:41:35;8.03;;;7.33;;
1785;SDS011;890;48.158;11.540;2022-09-02T03:44:01;8.40;;;7.60;;
1785;SDS011;890;48.158;11.540;2022-09-02T03:46:27;7.30;;;6.80;;
1785;SDS011;890;48.158;11.540;2022-09-02T03:48:53;7.30;;;6.80;;
1785;SDS011;890;48.158;11.540;2022-09-02T03:51:19;7.40;;;6.80;;
1785;SDS011;890;48.158;11.540;2022-09-02T03:53:49;7.50;;;6.90;;
1785;SDS011;890;48.158;11.540;2022-09-02T03:56:15;7.83;;;7.33;;
1785;SDS011;890;48.158;11.540;2022-09-02T03:58:45;9.07;;;8.23;;
1785;SDS011;890;48.158;11.540;2022-09-02T04:01:14;8.00;;;7.40;;
1785;SDS011;890;48.158;11.540;2022-09-02T04:03:41;8.10;;;7.50;;
1785;SDS011;890;48.158;11.540;2022-09-02T04:06:08;8.23;;;7.63;;
1785;SDS011;890;48.158;11.540;2022-09-02T04:08:36;8.33;;;7.63;;
1785;SDS011;890;48.158;11.540;2022-09-02T04:11:07;8.07;;;7.43;;
1785;SDS011;890;48.158;11.540;2022-09-02T04:13:34;8.03;;;7.47;;
1785;SDS011;890;48.158;11.540;2022-09-02T04:16:34;8.70;;;7.90;;
1785;SDS011;890;48.158;11.540;2022-09-02T04:18:56;8.40;;;7.70;;
1785;SDS011;890;48.158;11.540;2022-09-02T04:21:25;9.17;;;8.47;;
1785;SDS011;890;48.158;11.540;2022-09-02T04:23:51;8.77;;;8.07;;
1785;SDS011;890;48.158;11.540;2022-09-02T04:26:17;8.27;;;7.67;;
1785;SDS011;890;48.158;11.540;2022-09-02T04:28:44;9.10;;;8.40;;
1785;SDS011;890;48.158;11.540;2022-09-02T04:31:12;9.23;;;8.43;;
1785;SDS011;890;48.158;11.540;2022-09-02T04:33:40;9.30;;;8.60;;
1785;SDS011;890;48.158;11.540;2022-09-02T04:36:06;9.57;;;8.77;;
1785;SDS011;890;48.158;11.540;2022-09-02T04:38:34;9.83;;;9.03;;
1785;SDS011;890;48.158;11.540;2022-09-02T04:41:04;10.90;;;9.97;;
1785;SDS011;890;48.158;11.540;2022-09-02T04:43:32;9.93;;;9.03;;
1785;SDS011;890;48.158;11.540;2022-09-02T04:45:58;9.37;;;8.67;;
1785;SDS011;890;48.158;11.540;2022-09-02T04:48:23;9.40;;;8.70;;
1785;SDS011;890;48.158;11.540;2022-09-02T04:50:49;9.53;;;8.70;;
1785;SDS011;890;48.158;11.540;2022-09-02T04:53:15;10.30;;;9.30;;
1785;SDS011;890;48.158;11.540;2022-09-02T04:55:40;9.87;;;9.07;;
1785;SDS011;890;48.158;11.540;2022-09-02T04:58:07;9.90;;;8.97;;
1785;SDS011;890;48.158;11.540;2022-09-02T05:00:36;8.30;;;7.70;;
1785;SDS011;890;48.158;11.540;2022-09-02T05:03:03;10.03;;;9.13;;
1785;SDS011;890;48.158;11.540;2022-09-02T05:05:30;10.20;;;9.30;;
1785;SDS011;890;48.158;11.540;2022-09-02T05:07:57;10.47;;;9.43;;
1785;SDS011;890;48.158;11.540;2022-09-02T05:10:23;9.93;;;9.13;;
1785;SDS011;890;48.158;11.540;2022-09-02T05:12:48;10.67;;;9.60;;
1785;SDS011;890;48.158;11.540;2022-09-02T05:15:14;10.87;;;9.90;;
1785;SDS011;890;48.158;11.540;2022-09-02T05:17:40;9.70;;;8.70;;
1785;SDS011;890;48.158;11.540;2022-09-02T05:20:07;12.33;;;11.13;;
1785;SDS011;890;48.158;11.540;2022-09-02T05:22:34;11.77;;;10.67;;
1785;SDS011;890;48.158;11.540;2022-09-02T05:25:00;10.60;;;9.77;;
1785;SDS011;890;48.158;11.540;2022-09-02T05:27:27;12.00;;;11.00;;
1785;SDS011;890;48.158;11.540;2022-09-02T05:29:53;13.37;;;12.13;;
1785;SDS011;890;48.158;11.540;2022-09-02T05:32:20;10.07;;;9.03;;
1785;SDS011;890;48.158;11.540;2022-09-02T05:34:47;10.20;;;9.30;;
1785;SDS011;890;48.158;11.540;2022-09-02T05:37:13;10.83;;;9.83;;
1785;SDS011;890;48.158;11.540;2022-09-02T05:39:39;9.57;;;8.40;;
1785;SDS011;890;48.158;11.540;2022-09-02T05:42:06;10.67;;;9.77;;
1785;SDS011;890;48.158;11.540;2022-09-02T05:44:32;10.00;;;8.97;;
1785;SDS011;890;48.158;11.540;2022-09-02T05:46:58;9.10;;;8.30;;
1785;SDS011;890;48.158;11.540;2022-09-02T05:49:24;9.27;;;8.47;;
1785;SDS011;890;48.158;11.540;2022-09-02T05:51:54;9.40;;;8.70;;
1785;SDS011;890;48.158;11.540;2022-09-02T05:54:23;10.67;;;9.67;;
1785;SDS011;890;48.158;11.540;2022-09-02T05:56:53;9.87;;;9.07;;
1785;SDS011;890;48.158;11.540;2022-09-02T05:59:20;9.63;;;8.73;;
1785;SDS011;890;48.158;11.540;2022-09-02T06:01:47;10.37;;;9.40;;
1785;SDS011;890;48.158;11.540;2022-09-02T06:04:13;8.60;;;7.70;;
1785;SDS011;890;48.158;11.540;2022-09-02T06:06:40;8.30;;;7.60;;
1785;SDS011;890;48.158;11.540;2022-09-02T06:09:07;9.77;;;8.80;;
1785;SDS011;890;48.158;11.540;2022-09-02T06:11:35;8.93;;;8.13;;
1785;SDS011;890;48.158;11.540;2022-09-02T06:14:04;9.17;;;8.37;;
1785;SDS011;890;48.158;11.540;2022-09-02T06:16:32;9.37;;;8.57;;
1785;SDS011;890;48.158;11.540;2022-09-02T06:18:58;8.63;;;7.97;;
1785;SDS011;890;48.158;11.540;2022-09-02T06:21:24;9.30;;;8.40;;
1785;SDS011;890;48.158;11.540;2022-09-02T06:23:49;9.50;;;8.60;;
1785;SDS011;890;48.158;11.540;2022-09-02T06:26:15;11.20;;;8.40;;
1785;SDS011;890;48.158;11.540;2022-09-02T06:28:42;8.83;;;8.03;;
1785;SDS011;890;48.158;11.540;2022-09-02T06:31:09;8.97;;;8.27;;
1785;SDS011;890;48.158;11.540;2022-09-02T06:33:40;9.03;;;8.23;;
1785;SDS011;890;48.158;11.540;2022-09-02T06:36:08;8.33;;;7.63;;
1785;SDS011;890;48.158;11.540;2022-09-02T06:38:39;8.93;;;8.23;;
1785;SDS011;890;48.158;11.540;2022-09-02T06:41:11;8.03;;;7.33;;
1785;SDS011;890;48.158;11.540;2022-09-02T06:43:41;9.20;;;7.53;;
1785;SDS011;890;48.158;11.540;2022-09-02T06:46:07;9.40;;;7.63;;
1785;SDS011;890;48.158;11.540;2022-09-02T06:48:38;7.33;;;6.73;;
1785;SDS011;890;48.158;11.540;2022-09-02T06:51:04;7.97;;;7.17;;
1785;SDS011;890;48.158;11.540;2022-09-02T06:53:29;7.23;;;6.63;;
1785;SDS011;890;48.158;11.540;2022-09-02T06:55:55;6.90;;;6.40;;
1785;SDS011;890;48.158;11.540;2022-09-02T06:58:21;7.33;;;6.63;;
1785;SDS011;890;48.158;11.540;2022-09-02T07:00:46;7.47;;;6.77;;
1785;SDS011;890;48.158;11.540;2022-09-02T07:03:12;7.10;;;6.40;;
1785;SDS011;890;48.158;11.540;2022-09-02T07:06:00;6.60;;;6.00;;
1785;SDS011;890;48.158;11.540;2022-09-02T07:08:33;7.13;;;6.43;;
1785;SDS011;890;48.158;11.540;2022-09-02T07:11:00;5.80;;;5.30;;
1785;SDS011;890;48.158;11.540;2022-09-02T07:13:26;8.03;;;6.10;;
1785;SDS011;890;48.158;11.540;2022-09-02T07:15:52;6.47;;;5.87;;
1785;SDS011;890;48.158;11.540;2022-09-02T07:18:17;6.07;;;5.50;;
1785;SDS011;890;48.158;11.540;2022-09-02T07:20:44;6.30;;;5.70;;
1785;SDS011;890;48.158;11.540;2022-09-02T07:23:10;6.10;;;5.37;;
1785;SDS011;890;48.158;11.540;2022-09-02T07:25:39;6.40;;;5.90;;
1785;SDS011;890;48.158;11.540;2022-09-02T07:28:06;6.17;;;5.67;;
1785;SDS011;890;48.158;11.540;2022-09-02T07:30:33;10.17;;;5.63;;
1785;SDS011;890;48.158;11.540;2022-09-02T07:32:58;5.90;;;5.20;;
1785;SDS011;890;48.158;11.540;2022-09-02T07:35:24;5.40;;;5.00;;
1785;SDS011;890;48.158;11.540;2022-09-02T07:37:50;6.73;;;6.23;;
1785;SDS011;890;48.158;11.540;2022-09-02T07:40:16;5.37;;;4.97;;
1785;SDS011;890;48.158;11.540;2022-09-02T07:42:42;5.37;;;4.97;;
1785;SDS011;890;48.158;11.540;2022-09-02T07:45:08;5.20;;;4.80;;
1785;SDS011;890;48.158;11.540;2022-09-02T07:47:35;5.07;;;4.67;;
1785;SDS011;890;48.158;11.540;2022-09-02T07:50:01;5.30;;;4.80;;
1785;SDS011;890;48.158;11.540;2022-09-02T07:52:27;6.20;;;4.93;;
1785;SDS011;890;48.158;11.540;2022-09-02T07:54:53;5.93;;;5.43;;
1785;SDS011;890;48.158;11.540;2022-09-02T07:57:18;5.33;;;4.83;;
1785;SDS011;890;48.158;11.540;2022-09-02T07:59:44;4.83;;;4.20;;
1785;SDS011;890;48.158;11.540;2022-09-02T08:02:11;6.77;;;4.03;;
1785;SDS011;890;48.158;11.540;2022-09-02T08:04:38;4.87;;;4.47;;
1785;SDS011;890;48.158;11.540;2022-09-02T08:07:04;4.03;;;3.67;;
1785;SDS011;890;48.158;11.540;2022-09-02T08:09:30;7.30;;;6.60;;
1785;SDS011;890;48.158;11.540;2022-09-02T08:11:56;8.63;;;6.00;;
1785;SDS011;890;48.158;11.540;2022-09-02T08:14:23;4.30;;;3.80;;
1785;SDS011;890;48.158;11.540;2022-09-02T08:16:52;4.57;;;4.13;;
1785;SDS011;890;48.158;11.540;2022-09-02T08:19:18;5.23;;;3.90;;
1785;SDS011;890;48.158;11.540;2022-09-02T08:21:45;6.53;;;4.07;;
1785;SDS011;890;48.158;11.540;2022-09-02T08:24:10;3.73;;;3.50;;
1785;SDS011;890;48.158;11.540;2022-09-02T08:26:36;3.50;;;3.20;;
1785;SDS011;890;48.158;11.540;2022-09-02T08:29:05;3.70;;;3.37;;
1785;SDS011;890;48.158;11.540;2022-09-02T08:31:32;3.47;;;2.83;;
1785;SDS011;890;48.158;11.540;2022-09-02T08:33:59;2.97;;;2.77;;
1785;SDS011;890;48.158;11.540;2022-09-02T08:36:25;3.50;;;2.60;;
1785;SDS011;890;48.158;11.540;2022-09-02T08:38:51;2.70;;;2.50;;
1785;SDS011;890;48.158;11.540;2022-09-02T08:41:26;3.30;;;2.50;;
1785;SDS011;890;48.158;11.540;2022-09-02T08:44:25;5.33;;;2.57;;
1785;SDS011;890;48.158;11.540;2022-09-02T08:46:53;2.40;;;2.03;;
1785;SDS011;890;48.158;11.540;2022-09-02T08:49:29;3.30;;;3.00;;
1785;SDS011;890;48.158;11.540;2022-09-02T08:52:01;2.80;;;2.47;;
1785;SDS011;890;48.158;11.540;2022-09-02T08:54:43;2.30;;;2.10;;
1785;SDS011;890;48.158;11.540;2022-09-02T08:57:13;3.10;;;2.07;;
1785;SDS011;890;48.158;11.540;2022-09-02T08:59:38;2.60;;;2.40;;
1785;SDS011;890;48.158;11.540;2022-09-02T09:10:23;2.20;;;2.00;;
1785;SDS011;890;48.158;11.540;2022-09-02T09:17:57;2.97;;;2.37;;
1785;SDS011;890;48.158;11.540;2022-09-02T09:20:28;2.47;;;2.27;;
1785;SDS011;890;48.158;11.540;2022-09-02T09:22:57;2.63;;;1.90;;
1785;SDS011;890;48.158;11.540;2022-09-02T09:25:25;2.27;;;2.13;;
1785;SDS011;890;48.158;11.540;2022-09-02T09:27:56;2.20;;;2.00;;
1785;SDS011;890;48.158;11.540;2022-09-02T09:30:23;2.73;;;1.90;;
1785;SDS011;890;48.158;11.540;2022-09-02T09:32:51;3.03;;;1.90;;
1785;SDS011;890;48.158;11.540;2022-09-02T09:35:22;2.87;;;2.33;;
1785;SDS011;890;48.158;11.540;2022-09-02T09:37:51;2.10;;;1.90;;
1785;SDS011;890;48.158;11.540;2022-09-02T09:45:26;1.90;;;1.80;;
1785;SDS011;890;48.158;11.540;2022-09-02T09:50:40;2.10;;;1.90;;
1785;SDS011;890;48.158;11.540;2022-09-02T09:55:54;2.10;;;1.93;;
1785;SDS011;890;48.158;11.540;2022-09-02T10:03:37;1.73;;;1.63;;
1785;SDS011;890;48.158;11.540;2022-09-02T10:08:56;3.20;;;2.07;;
1785;SDS011;890;48.158;11.540;2022-09-02T10:11:24;1.83;;;1.73;;
1785;SDS011;890;48.158;11.540;2022-09-02T10:14:01;1.60;;;1.50;;
1785;SDS011;890;48.158;11.540;2022-09-02T10:30:21;1.60;;;1.50;;
1785;SDS011;890;48.158;11.540;2022-09-02T10:41:25;2.10;;;2.00;;
1785;SDS011;890;48.158;11.540;2022-09-02T10:47:24;2.40;;;2.20;;
1785;SDS011;890;48.158;11.540;2022-09-02T10:52:45;2.40;;;1.80;;
1785;SDS011;890;48.158;11.540;2022-09-02T10:58:02;1.50;;;1.40;;
1785;SDS011;890;48.158;11.540;2022-09-02T11:00:32;2.00;;;1.80;;
1785;SDS011;890;48.158;11.540;2022-09-02T11:03:12;2.10;;;1.90;;
1785;SDS011;890;48.158;11.540;2022-09-02T11:05:54;1.70;;;1.60;;
1785;SDS011;890;48.158;11.540;2022-09-02T11:19:40;1.83;;;1.73;;
1785;SDS011;890;48.158;11.540;2022-09-02T11:22:33;1.87;;;1.73;;
1785;SDS011;890;48.158;11.540;2022-09-02T11:25:16;2.73;;;2.00;;
1785;SDS011;890;48.158;11.540;2022-09-02T11:28:15;1.87;;;1.70;;
1785;SDS011;890;48.158;11.540;2022-09-02T11:30:57;1.90;;;1.80;;
1785;SDS011;890;48.158;11.540;2022-09-02T11:36:25;2.40;;;1.73;;
1785;SDS011;890;48.158;11.540;2022-09-02T11:38:58;2.43;;;1.93;;
1785;SDS011;890;48.158;11.540;2022-09-02T11:55:15;1.67;;;1.57;;
1785;SDS011;890;48.158;11.540;2022-09-02T11:57:53;2.00;;;1.87;;
1785;SDS011;890;48.158;11.540;2022-09-02T12:08:03;3.00;;;1.60;;
1785;SDS011;890;48.158;11.540;2022-09-02T12:11:00;2.13;;;1.80;;
1785;SDS011;890;48.158;11.540;2022-09-02T12:13:44;2.03;;;1.93;;
1785;SDS011;890;48.158;11.540;2022-09-02T12:19:15;2.30;;;2.10;;
1785;SDS011;890;48.158;11.540;2022-09-02T12:21:34;2.10;;;1.90;;
1785;SDS011;890;48.158;11.540;2022-09-02T12:24:06;1.80;;;1.70;;
1785;SDS011;890;48.158;11.540;2022-09-02T12:29:12;1.90;;;1.80;;
1785;SDS011;890;48.158;11.540;2022-09-02T12:31:58;3.63;;;3.33;;
1785;SDS011;890;48.158;11.540;2022-09-02T12:36:50;2.90;;;2.60;;
1785;SDS011;890;48.158;11.540;2022-09-02T12:57:53;2.07;;;1.93;;
1785;SDS011;890;48.158;11.540;2022-09-02T13:00:32;2.57;;;2.37;;
1785;SDS011;890;48.158;11.540;2022-09-02T13:17:33;2.40;;;2.20;;
1785;SDS011;890;48.158;11.540;2022-09-02T13:33:27;2.23;;;2.03;;
1785;SDS011;890;48.158;11.540;2022-09-02T13:35:53;2.60;;;2.00;;
1785;SDS011;890;48.158;11.540;2022-09-02T13:38:23;1.87;;;1.77;;
1785;SDS011;890;48.158;11.540;2022-09-02T13:40:50;2.97;;;2.50;;
1785;SDS011;890;48.158;11.540;2022-09-02T13:43:17;2.03;;;1.80;;
1785;SDS011;890;48.158;11.540;2022-09-02T13:45:45;3.40;;;3.10;;
1785;SDS011;890;48.158;11.540;2022-09-02T13:48:17;2.97;;;1.90;;
1785;SDS011;890;48.158;11.540;2022-09-02T13:50:48;2.57;;;2.37;;
1785;SDS011;890;48.158;11.540;2022-09-02T13:53:34;3.20;;;2.00;;
1785;SDS011;890;48.158;11.540;2022-09-02T13:56:04;2.87;;;2.57;;
1785;SDS011;890;48.158;11.540;2022-09-02T13:58:51;3.13;;;2.50;;
1785;SDS011;890;48.158;11.540;2022-09-02T14:01:22;2.23;;;2.07;;
1785;SDS011;890;48.158;11.540;2022-09-02T14:04:00;2.33;;;2.13;;
1785;SDS011;890;48.158;11.540;2022-09-02T14:06:29;2.30;;;1.90;;
1785;SDS011;890;48.158;11.540;2022-09-02T14:09:01;2.10;;;1.90;;
1785;SDS011;890;48.158;11.540;2022-09-02T14:11:30;1.90;;;1.80;;
1785;SDS011;890;48.158;11.540;2022-09-02T14:14:13;2.20;;;2.10;;
1785;SDS011;890;48.158;11.540;2022-09-02T14:16:41;2.33;;;1.90;;
1785;SDS011;890;48.158;11.540;2022-09-02T14:21:51;3.43;;;2.40;;
1785;SDS011;890;48.158;11.540;2022-09-02T14:24:24;4.60;;;2.40;;
1785;SDS011;890;48.158;11.540;2022-09-02T14:26:55;2.60;;;2.33;;
1785;SDS011;890;48.158;11.540;2022-09-02T14:29:23;2.63;;;2.20;;
1785;SDS011;890;48.158;11.540;2022-09-02T14:34:46;4.60;;;4.10;;
1785;SDS011;890;48.158;11.540;2022-09-02T14:37:46;2.87;;;2.67;;
1785;SDS011;890;48.158;11.540;2022-09-02T14:40:14;3.03;;;2.57;;
1785;SDS011;890;48.158;11.540;2022-09-02T14:42:43;2.23;;;2.03;;
1785;SDS011;890;48.158;11.540;2022-09-02T14:45:13;6.60;;;2.90;;
1785;SDS011;890;48.158;11.540;2022-09-02T14:47:48;3.63;;;2.27;;
1785;SDS011;890;48.158;11.540;2022-09-02T14:50:14;3.23;;;1.97;;
1785;SDS011;890;48.158;11.540;2022-09-02T14:52:45;2.30;;;2.03;;
1785;SDS011;890;48.158;11.540;2022-09-02T14:58:12;2.20;;;2.00;;
1785;SDS011;890;48.158;11.540;2022-09-02T15:00:38;2.30;;;1.90;;
1785;SDS011;890;48.158;11.540;2022-09-02T15:03:04;2.40;;;2.20;;
1785;SDS011;890;48.158;11.540;2022-09-02T15:05:31;2.67;;;2.27;;
1785;SDS011;890;48.158;11.540;2022-09-02T15:07:57;2.73;;;2.00;;
1785;SDS011;890;48.158;11.540;2022-09-02T15:10:22;2.03;;;1.93;;
1785;SDS011;890;48.158;11.540;2022-09-02T15:12:49;2.00;;;1.90;;
1785;SDS011;890;48.158;11.540;2022-09-02T15:15:20;2.97;;;2.77;;
1785;SDS011;890;48.158;11.540;2022-09-02T15:17:45;2.50;;;2.30;;
1785;SDS011;890;48.158;11.540;2022-09-02T15:20:11;4.23;;;2.00;;
1785;SDS011;890;48.158;11.540;2022-09-02T15:22:37;2.60;;;1.90;;
1785;SDS011;890;48.158;11.540;2022-09-02T15:25:03;2.50;;;2.30;;
1785;SDS011;890;48.158;11.540;2022-09-02T15:27:32;2.17;;;1.77;;
1785;SDS011;890;48.158;11.540;2022-09-02T15:29:58;1.90;;;1.80;;
1785;SDS011;890;48.158;11.540;2022-09-02T15:32:27;3.70;;;2.00;;
1785;SDS011;890;48.158;11.540;2022-09-02T15:34:53;2.07;;;1.97;;
1785;SDS011;890;48.158;11.540;2022-09-02T15:37:19;2.27;;;1.90;;
1785;SDS011;890;48.158;11.540;2022-09-02T15:39:44;3.77;;;2.03;;
1785;SDS011;890;48.158;11.540;2022-09-02T15:42:10;2.60;;;1.43;;
1785;SDS011;890;48.158;11.540;2022-09-02T15:44:35;1.73;;;1.60;;
1785;SDS011;890;48.158;11.540;2022-09-02T15:47:01;3.03;;;1.80;;
1785;SDS011;890;48.158;11.540;2022-09-02T15:49:27;2.27;;;1.83;;
1785;SDS011;890;48.158;11.540;2022-09-02T15:51:54;2.90;;;1.90;;
1785;SDS011;890;48.158;11.540;2022-09-02T15:54:21;4.83;;;1.97;;
1785;SDS011;890;48.158;11.540;2022-09-02T15:56:47;3.20;;;1.90;;
1785;SDS011;890;48.158;11.540;2022-09-02T15:59:19;2.10;;;1.90;;
1785;SDS011;890;48.158;11.540;2022-09-02T16:01:46;2.60;;;2.10;;
1785;SDS011;890;48.158;11.540;2022-09-02T16:04:19;2.93;;;2.50;;
1785;SDS011;890;48.158;11.540;2022-09-02T16:06:46;2.33;;;1.73;;
1785;SDS011;890;48.158;11.540;2022-09-02T16:09:13;2.00;;;1.90;;
1785;SDS011;890;48.158;11.540;2022-09-02T16:11:41;2.80;;;2.07;;
1785;SDS011;890;48.158;11.540;2022-09-02T16:14:08;5.90;;;2.60;;
1785;SDS011;890;48.158;11.540;2022-09-02T16:16:34;3.97;;;2.53;;
1785;SDS011;890;48.158;11.540;2022-09-02T16:19:01;4.13;;;2.30;;
1785;SDS011;890;48.158;11.540;2022-09-02T16:21:28;2.17;;;1.97;;
1785;SDS011;890;48.158;11.540;2022-09-02T16:23:54;2.90;;;1.93;;
1785;SDS011;890;48.158;11.540;2022-09-02T16:26:27;2.63;;;2.30;;
1785;SDS011;890;48.158;11.540;2022-09-02T16:28:55;2.17;;;1.97;;
1785;SDS011;890;48.158;11.540;2022-09-02T16:31:22;3.00;;;2.80;;
1785;SDS011;890;48.158;11.540;2022-09-02T16:33:54;4.33;;;3.93;;
1785;SDS011;890;48.158;11.540;2022-09-02T16:36:22;2.60;;;1.90;;
1785;SDS011;890;48.158;11.540;2022-09-02T16:38:49;2.80;;;2.60;;
1785;SDS011;890;48.158;11.540;2022-09-02T16:41:48;3.63;;;2.60;;
1785;SDS011;890;48.158;11.540;2022-09-02T16:44:09;2.37;;;2.00;;
1785;SDS011;890;48.158;11.540;2022-09-02T16:46:36;2.50;;;2.00;;
1785;SDS011;890;48.158;11.540;2022-09-02T16:49:05;2.23;;;1.70;;
1785;SDS011;890;48.158;11.540;2022-09-02T16:51:34;2.27;;;2.03;;
1785;SDS011;890;48.158;11.540;2022-09-02T16:54:00;2.03;;;1.83;;
1785;SDS011;890;48.158;11.540;2022-09-02T16:56:28;2.40;;;2.03;;
1785;SDS011;890;48.158;11.540;2022-09-02T16:58:54;1.80;;;1.70;;
1785;SDS011;890;48.158;11.540;2022-09-02T17:01:23;1.93;;;1.80;;
1785;SDS011;890;48.158;11.540;2022-09-02T17:03:49;2.00;;;1.90;;
1785;SDS011;890;48.158;11.540;2022-09-02T17:06:15;2.70;;;1.73;;
1785;SDS011;890;48.158;11.540;2022-09-02T17:08:41;2.30;;;2.10;;
1785;SDS011;890;48.158;11.540;2022-09-02T17:13:45;2.20;;;1.90;;
1785;SDS011;890;48.158;11.540;2022-09-02T17:16:12;2.40;;;2.10;;
1785;SDS011;890;48.158;11.540;2022-09-02T17:18:38;5.13;;;1.77;;
1785;SDS011;890;48.158;11.540;2022-09-02T17:21:12;1.90;;;1.80;;
1785;SDS011;890;48.158;11.540;2022-09-02T17:23:39;1.73;;;1.63;;
1785;SDS011;890;48.158;11.540;2022-09-02T17:26:05;2.33;;;2.00;;
1785;SDS011;890;48.158;11.540;2022-09-02T17:28:30;2.80;;;2.20;;
1785;SDS011;890;48.158;11.540;2022-09-02T17:30:56;2.27;;;2.10;;
1785;SDS011;890;48.158;11.540;2022-09-02T17:33:23;3.70;;;2.30;;
1785;SDS011;890;48.158;11.540;2022-09-02T17:35:55;2.50;;;2.30;;
1785;SDS011;890;48.158;11.540;2022-09-02T17:38:21;2.30;;;2.10;;
1785;SDS011;890;48.158;11.540;2022-09-02T17:40:47;5.43;;;3.63;;
1785;SDS011;890;48.158;11.540;2022-09-02T17:43:31;2.90;;;2.70;;
1785;SDS011;890;48.158;11.540;2022-09-02T17:46:06;5.43;;;3.73;;
1785;SDS011;890;48.158;11.540;2022-09-02T17:48:33;3.00;;;2.80;;
1785;SDS011;890;48.158;11.540;2022-09-02T17:50:59;2.13;;;1.90;;
1785;SDS011;890;48.158;11.540;2022-09-02T17:53:25;2.83;;;2.17;;
1785;SDS011;890;48.158;11.540;2022-09-02T17:55:53;3.40;;;2.30;;
1785;SDS011;890;48.158;11.540;2022-09-02T17:58:27;2.37;;;2.17;;
1785;SDS011;890;48.158;11.540;2022-09-02T18:01:02;2.97;;;2.23;;
1785;SDS011;890;48.158;11.540;2022-09-02T18:03:42;2.60;;;2.00;;
1785;SDS011;890;48.158;11.540;2022-09-02T18:06:21;2.67;;;2.30;;
1785;SDS011;890;48.158;11.540;2022-09-02T18:08:56;3.43;;;2.60;;